Time;durP1;ratioP1;P1;durP2;ratioP2;P2;SDS_P1;SDS_P2;PMS_P1;PMS_P2;Temp;Humidity;BMP_temperature;BMP_pressure;BME280_temperature;BME280_humidity;BME280_pressure;Samples;Min_cycle;Max_cycle;Signal;HPM_P1;HPM_P2
2021/08/11 00:01:57;;;;;;;0.80;0.80;;;17.50;68.30;;;;;;4976579;28;95712;-49
2021/08/11 00:04:29;;;;;;;1.48;0.80;;;17.60;68.50;;;;;;4972734;28;95615;-49
2021/08/11 00:07:01;;;;;;;0.45;0.45;;;17.70;68.80;;;;;;4971671;28;95352;-54
2021/08/11 00:09:32;;;;;;;1.42;0.80;;;17.80;69.00;;;;;;4976508;28;95928;-55
2021/08/11 00:12:04;;;;;;;0.93;0.80;;;17.80;69.10;;;;;;4979743;28;98271;-55
2021/08/11 00:14:34;;;;;;;0.93;0.68;;;17.90;69.10;;;;;;4983268;28;96346;-50
2021/08/11 00:17:06;;;;;;;1.08;0.73;;;18.00;69.20;;;;;;4975829;28;95999;-54
2021/08/11 00:19:36;;;;;;;;;;;18.00;69.40;;;;;;4983983;28;96231;-51
2021/08/11 00:22:07;;;;;;;0.52;0.52;;;18.10;69.20;;;;;;4982748;28;97267;-53
2021/08/11 00:24:41;;;;;;;;;;;18.10;69.10;;;;;;4978286;28;96125;-51
2021/08/11 00:27:13;;;;;;;0.88;0.70;;;18.30;69.20;;;;;;4978509;28;96382;-51
2021/08/11 00:29:43;;;;;;;;;;;18.30;69.10;;;;;;4981488;28;95918;-54
2021/08/11 00:32:14;;;;;;;0.63;0.50;;;18.30;69.10;;;;;;4978182;28;96109;-53
2021/08/11 00:34:44;;;;;;;0.77;0.60;;;18.40;69.10;;;;;;4980807;28;97550;-53
2021/08/11 00:37:14;;;;;;;2.00;0.88;;;18.50;69.20;;;;;;5014131;28;95826;-50
2021/08/11 00:39:47;;;;;;;1.23;0.47;;;18.50;67.40;;;;;;4981156;28;96545;-51
2021/08/11 00:42:19;;;;;;;3.42;0.55;;;18.50;67.20;;;;;;4976396;28;96035;-52
2021/08/11 00:44:50;;;;;;;0.98;0.68;;;18.50;66.90;;;;;;4980695;28;96167;-56
2021/08/11 00:47:25;;;;;;;0.60;0.60;;;18.50;66.60;;;;;;4979578;28;96101;-53
2021/08/11 00:49:56;;;;;;;0.95;0.63;;;18.50;66.70;;;;;;4982886;28;97060;-49
2021/08/11 00:52:26;;;;;;;0.98;0.73;;;18.50;66.60;;;;;;4983709;28;95725;-55
2021/08/11 00:54:58;;;;;;;1.17;0.70;;;18.60;66.50;;;;;;4982207;28;96130;-51
2021/08/11 00:57:33;;;;;;;2.03;0.65;;;18.60;66.20;;;;;;4983290;28;96150;-53
2021/08/11 01:00:05;;;;;;;0.98;0.80;;;18.60;66.10;;;;;;4974145;28;96149;-56
2021/08/11 01:02:39;;;;;;;0.77;0.75;;;18.60;66.10;;;;;;4997220;28;95989;-52
2021/08/11 01:05:13;;;;;;;2.15;0.85;;;18.70;66.20;;;;;;4981995;28;96126;-52
2021/08/11 01:07:49;;;;;;;1.38;0.60;;;18.60;66.10;;;;;;4982961;28;95937;-50
2021/08/11 01:10:21;;;;;;;1.23;0.77;;;18.60;66.00;;;;;;4981600;28;96038;-52
2021/08/11 01:12:53;;;;;;;1.00;0.60;;;18.70;66.00;;;;;;4982440;28;96184;-53
2021/08/11 01:15:24;;;;;;;0.60;0.60;;;18.70;65.90;;;;;;4974158;28;95946;-54
2021/08/11 01:17:56;;;;;;;0.60;0.60;;;18.70;65.70;;;;;;4979324;28;96210;-52
2021/08/11 01:20:28;;;;;;;1.45;0.90;;;18.70;65.70;;;;;;4982374;28;96802;-51
2021/08/11 01:23:04;;;;;;;0.77;0.60;;;18.80;65.50;;;;;;4981008;28;98078;-52
2021/08/11 01:25:38;;;;;;;1.67;0.93;;;18.80;65.50;;;;;;4983237;28;95357;-50
2021/08/11 01:28:16;;;;;;;1.63;1.00;;;18.90;65.50;;;;;;4983653;28;95689;-54
2021/08/11 01:30:52;;;;;;;0.73;0.63;;;18.90;65.40;;;;;;4975404;28;96052;-55
2021/08/11 01:33:38;;;;;;;1.92;0.65;;;18.90;65.60;;;;;;4977672;28;96099;-55
2021/08/11 01:36:50;;;;;;;0.52;0.52;;;18.90;65.30;;;;;;4983332;28;95938;-60
2021/08/11 01:39:37;;;;;;;0.70;0.70;;;18.90;65.00;;;;;;4971317;28;97580;-54
2021/08/11 01:42:21;;;;;;;0.90;0.50;;;18.90;64.90;;;;;;4981035;28;98325;-54
2021/08/11 01:45:19;;;;;;;0.85;0.80;;;18.90;65.10;;;;;;4981178;28;95375;-55
2021/08/11 01:47:57;;;;;;;0.70;0.70;;;18.90;65.20;;;;;;4975035;28;95814;-56
2021/08/11 01:50:35;;;;;;;0.80;0.80;;;18.90;65.30;;;;;;4978607;28;95433;-52
2021/08/11 01:53:10;;;;;;;0.60;0.60;;;18.90;65.30;;;;;;4964660;28;96050;-55
2021/08/11 01:55:41;;;;;;;1.10;0.63;;;18.90;65.10;;;;;;4966269;28;97721;-54
2021/08/11 01:58:12;;;;;;;;;;;18.90;65.30;;;;;;5015489;28;95805;-55
2021/08/11 02:00:44;;;;;;;;;;;18.90;65.20;;;;;;4983271;28;95888;-53
2021/08/11 02:03:20;;;;;;;0.82;0.70;;;18.90;65.30;;;;;;4983754;28;96167;-53
2021/08/11 02:05:57;;;;;;;0.57;0.57;;;18.90;65.30;;;;;;4968650;28;97613;-50
2021/08/11 02:08:29;;;;;;;3.80;0.70;;;18.90;65.50;;;;;;4978808;28;96049;-54
2021/08/11 02:11:02;;;;;;;4.00;0.65;;;18.90;65.80;;;;;;4984595;28;95465;-53
2021/08/11 02:13:37;;;;;;;2.35;0.93;;;18.90;65.60;;;;;;4981163;28;96921;-53
2021/08/11 02:16:11;;;;;;;1.27;0.77;;;18.90;65.90;;;;;;4974720;28;97969;-54
2021/08/11 02:18:42;;;;;;;2.00;0.60;;;18.90;65.70;;;;;;4982206;28;96489;-56
2021/08/11 02:21:14;;;;;;;1.35;0.65;;;18.90;65.60;;;;;;4978004;28;96020;-55
2021/08/11 02:23:45;;;;;;;0.60;0.60;;;18.90;65.60;;;;;;4976313;28;96293;-55
2021/08/11 02:26:40;;;;;;;2.53;0.80;;;18.90;65.60;;;;;;4983414;28;96099;-55
2021/08/11 02:29:16;;;;;;;1.58;0.70;;;18.90;65.60;;;;;;4967416;28;96050;-56
2021/08/11 02:32:12;;;;;;;1.05;0.68;;;18.90;65.40;;;;;;4976189;28;95900;-56
2021/08/11 02:34:49;;;;;;;1.48;0.50;;;18.80;65.50;;;;;;4948322;28;97950;-57
2021/08/11 02:37:24;;;;;;;0.95;0.65;;;18.80;65.50;;;;;;4979989;28;97448;-52
2021/08/11 02:40:21;;;;;;;1.15;0.55;;;18.80;65.50;;;;;;4975711;28;97834;-55
2021/08/11 02:43:24;;;;;;;2.05;0.73;;;18.80;65.50;;;;;;4982154;28;96072;-53
2021/08/11 02:45:59;;;;;;;0.73;0.70;;;18.80;65.10;;;;;;4975985;28;97990;-54
2021/08/11 02:48:34;;;;;;;0.57;0.52;;;18.80;65.10;;;;;;4981459;28;98173;-54
2021/08/11 02:51:08;;;;;;;1.50;0.60;;;18.80;65.10;;;;;;4982813;28;95278;-53
2021/08/11 02:53:43;;;;;;;0.77;0.52;;;18.80;64.80;;;;;;4981290;28;95925;-52
2021/08/11 02:56:15;;;;;;;0.90;0.70;;;18.70;64.90;;;;;;4976343;28;97746;-55
2021/08/11 02:58:47;;;;;;;1.02;0.60;;;18.70;64.80;;;;;;4974574;28;95936;-53
2021/08/11 03:01:19;;;;;;;0.82;0.68;;;18.70;64.60;;;;;;4975940;28;95627;-52
2021/08/11 03:03:54;;;;;;;1.15;0.75;;;18.70;65.00;;;;;;5011485;27;96777;-53
2021/08/11 03:06:26;;;;;;;0.50;0.40;;;18.70;64.50;;;;;;4975774;28;96918;-53
2021/08/11 03:08:57;;;;;;;;;;;18.80;64.80;;;;;;4982815;28;97488;-55
2021/08/11 03:11:34;;;;;;;0.90;0.50;;;18.90;65.10;;;;;;4983434;28;96062;-51
2021/08/11 03:14:13;;;;;;;1.05;0.60;;;19.00;65.00;;;;;;5008889;28;96208;-51
2021/08/11 03:16:45;;;;;;;0.95;0.70;;;19.00;65.00;;;;;;4974713;28;98116;-52
2021/08/11 03:19:17;;;;;;;0.80;0.80;;;19.10;65.10;;;;;;4980292;28;96116;-50
2021/08/11 03:21:47;;;;;;;0.85;0.82;;;19.10;65.00;;;;;;4979895;28;96716;-50
2021/08/11 03:24:19;;;;;;;0.60;0.52;;;19.20;65.10;;;;;;4982032;28;95334;-50
2021/08/11 03:26:49;;;;;;;0.75;0.60;;;19.20;65.00;;;;;;4981687;28;97184;-52
2021/08/11 03:29:19;;;;;;;1.07;0.60;;;19.30;65.00;;;;;;4978765;28;95800;-52
2021/08/11 03:31:50;;;;;;;0.73;0.68;;;19.30;65.00;;;;;;4969001;28;95853;-52
2021/08/11 03:34:20;;;;;;;;;;;19.30;65.20;;;;;;4962552;28;95446;-52
2021/08/11 03:36:53;;;;;;;0.35;0.35;;;19.30;65.00;;;;;;4977609;28;97964;-53
2021/08/11 03:39:24;;;;;;;0.50;0.50;;;19.40;65.10;;;;;;4960221;28;96182;-51
2021/08/11 03:41:57;;;;;;;0.40;0.40;;;19.40;65.20;;;;;;4992950;28;95849;-54
2021/08/11 03:44:28;;;;;;;0.95;0.88;;;19.50;65.10;;;;;;4960297;28;95911;-54
2021/08/11 03:46:59;;;;;;;;;;;19.50;64.90;;;;;;4967855;28;98581;-53
2021/08/11 03:49:31;;;;;;;1.57;0.70;;;19.50;64.90;;;;;;4979347;28;96434;-50
2021/08/11 03:52:01;;;;;;;1.55;0.52;;;19.50;65.00;;;;;;4980403;28;95782;-54
2021/08/11 03:54:35;;;;;;;1.10;0.60;;;19.50;65.00;;;;;;4979629;28;95476;-50
2021/08/11 03:57:06;;;;;;;0.32;0.32;;;19.50;65.00;;;;;;4979123;28;98046;-53
2021/08/11 03:59:38;;;;;;;0.60;0.60;;;19.60;65.00;;;;;;4979667;28;95842;-56
2021/08/11 04:02:10;;;;;;;1.55;0.65;;;19.70;64.90;;;;;;4976046;28;96387;-51
2021/08/11 04:04:41;;;;;;;0.82;0.50;;;19.50;61.70;;;;;;4969849;28;100302;-54
2021/08/11 04:07:12;;;;;;;0.52;0.50;;;19.40;62.40;;;;;;4974137;28;96189;-49
2021/08/11 04:09:43;;;;;;;2.20;0.60;;;19.50;62.90;;;;;;4978851;28;96412;-55
2021/08/11 04:12:15;;;;;;;1.00;0.73;;;19.50;63.10;;;;;;4977638;28;95638;-50
2021/08/11 04:14:46;;;;;;;0.93;0.80;;;19.60;63.20;;;;;;4978469;28;95890;-48
2021/08/11 04:17:16;;;;;;;1.52;0.60;;;19.60;63.20;;;;;;4978362;28;95820;-54
2021/08/11 04:19:47;;;;;;;1.15;0.60;;;19.70;63.20;;;;;;4976127;28;95802;-55
2021/08/11 04:22:17;;;;;;;0.73;0.65;;;19.70;63.30;;;;;;4979372;28;96576;-56
2021/08/11 04:24:46;;;;;;;0.60;0.47;;;19.80;63.30;;;;;;4984081;28;95272;-54
2021/08/11 04:27:16;;;;;;;0.52;0.50;;;19.80;63.30;;;;;;4982333;28;95653;-53
2021/08/11 04:29:47;;;;;;;0.57;0.50;;;19.90;63.30;;;;;;4981163;28;95845;-57
2021/08/11 04:32:17;;;;;;;;;;;19.90;63.30;;;;;;4978539;28;95740;-55
2021/08/11 04:34:50;;;;;;;1.85;0.80;;;19.90;63.30;;;;;;4977080;28;95572;-49
2021/08/11 04:37:21;;;;;;;0.57;0.55;;;19.90;63.30;;;;;;4978108;28;97453;-49
2021/08/11 04:39:52;;;;;;;0.40;0.40;;;20.00;63.30;;;;;;4974353;28;95815;-53
2021/08/11 04:42:23;;;;;;;0.52;0.52;;;20.00;63.30;;;;;;4981078;28;95760;-55
2021/08/11 04:44:53;;;;;;;0.70;0.68;;;20.00;63.20;;;;;;5013627;28;96074;-56
2021/08/11 04:47:25;;;;;;;0.40;0.40;;;20.10;63.20;;;;;;4979944;28;96784;-52
2021/08/11 04:49:54;;;;;;;0.90;0.85;;;20.10;63.00;;;;;;4980672;28;95888;-56
2021/08/11 04:52:24;;;;;;;1.60;0.68;;;20.00;60.30;;;;;;4983468;28;95743;-53
2021/08/11 04:54:54;;;;;;;1.35;0.82;;;19.90;60.30;;;;;;4981658;28;95812;-52
2021/08/11 04:57:25;;;;;;;1.83;1.05;;;19.80;60.30;;;;;;4982885;28;96018;-55
2021/08/11 04:59:57;;;;;;;0.93;0.55;;;19.70;60.40;;;;;;4985783;28;96046;-55
2021/08/11 05:02:28;;;;;;;1.20;0.80;;;19.60;60.70;;;;;;4983756;28;95746;-56
2021/08/11 05:04:58;;;;;;;1.77;0.80;;;19.60;60.80;;;;;;4976589;28;95777;-55
2021/08/11 05:07:28;;;;;;;1.02;0.63;;;19.50;60.80;;;;;;4978606;28;96140;-56
2021/08/11 05:10:00;;;;;;;4.43;0.90;;;19.50;60.70;;;;;;4979163;28;97708;-56
2021/08/11 05:12:32;;;;;;;0.65;0.65;;;19.40;60.90;;;;;;4977656;28;96641;-53
2021/08/11 05:15:04;;;;;;;0.60;0.60;;;19.40;61.00;;;;;;4982551;28;95254;-51
2021/08/11 05:17:35;;;;;;;0.47;0.43;;;19.30;61.10;;;;;;4985656;28;95762;-56
2021/08/11 05:20:05;;;;;;;0.50;0.50;;;19.30;61.30;;;;;;4983791;28;96055;-56
2021/08/11 05:22:35;;;;;;;1.10;1.00;;;19.30;61.40;;;;;;4979785;28;95916;-51
2021/08/11 05:25:05;;;;;;;0.82;0.82;;;19.20;61.40;;;;;;4979880;28;95277;-55
2021/08/11 05:27:35;;;;;;;4.32;0.70;;;19.20;61.70;;;;;;4974805;28;97830;-51
2021/08/11 05:31:16;;;;;;;1.92;0.80;;;19.20;61.30;;;;;;5019158;27;95945;-53
2021/08/11 05:33:48;;;;;;;0.82;0.80;;;19.10;62.10;;;;;;4981952;28;98529;-58
2021/08/11 05:36:18;;;;;;;1.65;0.70;;;19.10;62.40;;;;;;4989789;28;97952;-53
2021/08/11 05:38:48;;;;;;;1.77;0.77;;;19.10;62.30;;;;;;5001001;28;96415;-52
2021/08/11 05:41:17;;;;;;;2.53;0.90;;;19.00;62.50;;;;;;4976149;28;95777;-54
2021/08/11 05:43:47;;;;;;;1.75;0.57;;;19.10;62.60;;;;;;4999159;28;96757;-55
2021/08/11 05:46:19;;;;;;;0.93;0.70;;;19.10;62.60;;;;;;4991763;28;96853;-53
2021/08/11 05:48:48;;;;;;;0.73;0.50;;;19.20;62.80;;;;;;4978578;28;96527;-55
2021/08/11 05:51:18;;;;;;;0.63;0.43;;;19.20;62.70;;;;;;4999085;28;95964;-53
2021/08/11 05:53:48;;;;;;;0.70;0.70;;;19.20;62.70;;;;;;4999148;28;95887;-55
2021/08/11 05:56:17;;;;;;;1.30;0.60;;;19.20;62.90;;;;;;4982669;28;95764;-55
2021/08/11 05:58:47;;;;;;;0.80;0.75;;;19.20;62.90;;;;;;4998801;28;95692;-56
2021/08/11 06:01:18;;;;;;;1.10;0.70;;;19.20;62.90;;;;;;4978503;28;96544;-55
2021/08/11 06:03:48;;;;;;;1.40;0.70;;;19.20;63.10;;;;;;4999063;28;96829;-55
2021/08/11 06:06:19;;;;;;;0.68;0.68;;;19.20;63.20;;;;;;5000310;28;95869;-55
2021/08/11 06:08:49;;;;;;;1.40;0.80;;;19.20;63.50;;;;;;5000288;28;96661;-53
2021/08/11 06:11:19;;;;;;;1.58;0.60;;;19.20;63.50;;;;;;4982664;28;96180;-57
2021/08/11 06:13:50;;;;;;;1.83;0.70;;;19.20;63.40;;;;;;4999723;28;95877;-56
2021/08/11 06:16:21;;;;;;;1.50;0.70;;;19.20;63.30;;;;;;4998447;28;95730;-55
2021/08/11 06:18:56;;;;;;;0.93;0.65;;;19.20;63.50;;;;;;5017680;27;96013;-53
2021/08/11 06:21:27;;;;;;;1.88;0.80;;;19.10;63.60;;;;;;5017564;28;96481;-50
2021/08/11 06:24:01;;;;;;;1.55;0.75;;;19.10;63.50;;;;;;5020085;27;95449;-53
2021/08/11 06:26:33;;;;;;;1.17;0.60;;;19.10;63.60;;;;;;5022140;28;95393;-56
2021/08/11 06:29:03;;;;;;;1.13;0.90;;;19.10;63.90;;;;;;5020161;27;96401;-54
2021/08/11 06:31:35;;;;;;;4.38;1.05;;;19.00;63.80;;;;;;5006608;28;97274;-55
2021/08/11 06:34:06;;;;;;;4.13;1.13;;;19.10;64.20;;;;;;5016266;27;96003;-54
2021/08/11 06:36:40;;;;;;;3.55;0.77;;;19.10;64.20;;;;;;5009308;27;96529;-50
2021/08/11 06:39:11;;;;;;;0.55;0.55;;;19.10;64.50;;;;;;5020634;27;96502;-56
2021/08/11 06:41:43;;;;;;;2.05;0.70;;;19.10;64.20;;;;;;5011576;28;95851;-56
2021/08/11 06:44:18;;;;;;;1.95;0.68;;;19.10;64.30;;;;;;4995911;28;97865;-54
2021/08/11 06:46:48;;;;;;;3.72;0.73;;;19.10;64.40;;;;;;4988727;28;95843;-53
2021/08/11 06:49:18;;;;;;;1.90;0.87;;;19.00;64.80;;;;;;4987527;28;96039;-56
2021/08/11 06:51:48;;;;;;;0.63;0.60;;;19.10;64.90;;;;;;4987707;28;96633;-52
2021/08/11 06:54:18;;;;;;;1.13;0.77;;;19.10;64.80;;;;;;5004450;28;95743;-56
2021/08/11 06:56:48;;;;;;;1.45;0.50;;;19.10;64.70;;;;;;5007332;28;96210;-53
2021/08/11 06:59:20;;;;;;;1.83;0.80;;;19.00;64.60;;;;;;4989252;28;96123;-56
2021/08/11 07:01:51;;;;;;;2.03;0.85;;;19.00;64.70;;;;;;4990240;28;96834;-57
2021/08/11 07:04:22;;;;;;;0.70;0.70;;;19.10;64.70;;;;;;4984571;28;95870;-54
2021/08/11 07:06:54;;;;;;;1.55;0.50;;;19.10;64.80;;;;;;4983175;28;95290;-56
2021/08/11 07:09:25;;;;;;;0.70;0.70;;;19.10;64.70;;;;;;4982064;28;95927;-52
2021/08/11 07:11:56;;;;;;;0.52;0.52;;;19.10;64.70;;;;;;4978740;28;95885;-56
2021/08/11 07:14:26;;;;;;;;;;;19.10;64.70;;;;;;4985058;28;95264;-56
2021/08/11 07:16:58;;;;;;;2.33;0.68;;;19.00;64.60;;;;;;4996253;28;97180;-54
2021/08/11 07:19:28;;;;;;;1.65;1.00;;;19.00;64.70;;;;;;5006849;28;96352;-54
2021/08/11 07:22:00;;;;;;;1.45;0.68;;;19.00;64.80;;;;;;5006150;28;95796;-58
2021/08/11 07:24:30;;;;;;;1.90;0.68;;;19.10;64.90;;;;;;5007143;28;95837;-57
2021/08/11 07:27:05;;;;;;;2.53;1.30;;;19.00;64.90;;;;;;5022822;27;95490;-52
2021/08/11 07:29:36;;;;;;;1.67;1.15;;;19.00;65.10;;;;;;5005713;28;96003;-52
2021/08/11 07:32:08;;;;;;;4.95;2.10;;;19.00;65.10;;;;;;5001939;28;97027;-54
2021/08/11 07:34:39;;;;;;;1.95;1.30;;;18.90;65.00;;;;;;5006452;27;96280;-56
2021/08/11 07:37:10;;;;;;;3.03;1.60;;;18.80;65.10;;;;;;4998152;28;99077;-54
2021/08/11 07:39:41;;;;;;;5.50;2.07;;;18.80;65.30;;;;;;5005518;28;96365;-55
2021/08/11 07:42:12;;;;;;;1.50;1.10;;;18.80;65.50;;;;;;5004793;28;96918;-53
2021/08/11 07:44:43;;;;;;;;;;;18.70;65.30;;;;;;5005034;28;96097;-54
2021/08/11 07:47:14;;;;;;;2.22;1.40;;;18.70;65.50;;;;;;5001784;28;98821;-56
2021/08/11 07:49:45;;;;;;;2.90;1.50;;;18.70;65.70;;;;;;5002505;28;96442;-55
2021/08/11 07:52:15;;;;;;;3.15;1.70;;;18.60;65.90;;;;;;4985115;28;96075;-56
2021/08/11 07:54:45;;;;;;;3.10;1.42;;;18.60;66.00;;;;;;5003755;28;95938;-51
2021/08/11 07:57:15;;;;;;;4.55;1.55;;;18.60;66.10;;;;;;5002712;28;97222;-55
2021/08/11 07:59:48;;;;;;;4.00;1.77;;;18.60;66.10;;;;;;4981758;28;96068;-52
2021/08/11 08:02:18;;;;;;;;;;;18.50;66.20;;;;;;4979037;28;95977;-53
2021/08/11 08:04:49;;;;;;;5.90;1.55;;;18.50;66.20;;;;;;4983996;28;97534;-52
2021/08/11 08:07:19;;;;;;;3.67;1.55;;;18.40;66.10;;;;;;4983288;28;95792;-50
2021/08/11 08:09:51;;;;;;;2.57;1.40;;;18.40;66.10;;;;;;4983283;28;96541;-55
2021/08/11 08:12:22;;;;;;;2.17;1.55;;;18.30;66.10;;;;;;4983928;28;96185;-50
2021/08/11 08:14:52;;;;;;;2.70;1.73;;;18.30;66.00;;;;;;4982938;28;95724;-52
2021/08/11 08:17:24;;;;;;;1.70;1.60;;;18.30;66.20;;;;;;4974840;28;95609;-51
2021/08/11 08:20:17;;;;;;;3.17;1.20;;;18.30;66.30;;;;;;4981064;28;96504;-51
2021/08/11 08:22:49;;;;;;;2.50;1.45;;;18.30;66.20;;;;;;4965122;28;96068;-52
2021/08/11 08:25:21;;;;;;;2.53;1.50;;;18.20;66.30;;;;;;4984591;28;95873;-50
2021/08/11 08:27:54;;;;;;;5.57;1.95;;;18.20;66.30;;;;;;4984279;28;95494;-54
2021/08/11 08:30:47;;;;;;;4.13;3.03;;;18.20;66.50;;;;;;4979299;28;95796;-55
2021/08/11 08:33:19;;;;;;;7.35;4.82;;;18.10;67.00;;;;;;4959227;28;96070;-55
2021/08/11 08:35:50;;;;;;;13.38;5.80;;;18.10;66.80;;;;;;4964422;28;98858;-53
2021/08/11 08:38:21;;;;;;;11.65;6.13;;;18.10;66.90;;;;;;4983794;28;95861;-54
2021/08/11 08:41:11;;;;;;;13.82;6.57;;;18.00;66.90;;;;;;4982460;28;97112;-56
2021/08/11 08:43:42;;;;;;;10.07;6.35;;;18.00;67.00;;;;;;5000033;28;96110;-52
2021/08/11 08:46:15;;;;;;;15.57;7.43;;;18.00;67.10;;;;;;4979271;28;95954;-53
2021/08/11 08:48:46;;;;;;;11.07;7.25;;;18.00;67.00;;;;;;4982872;28;95656;-51
2021/08/11 08:51:16;;;;;;;12.20;7.47;;;18.00;67.10;;;;;;4977269;28;95821;-57
2021/08/11 08:53:46;;;;;;;13.43;7.88;;;18.00;67.20;;;;;;5002743;28;96128;-52
2021/08/11 08:56:18;;;;;;;10.68;7.95;;;17.90;67.50;;;;;;4984447;28;95781;-52
2021/08/11 08:58:49;;;;;;;16.35;8.02;;;17.90;67.70;;;;;;4986357;28;96716;-57
2021/08/11 09:01:19;;;;;;;13.15;8.18;;;17.80;67.70;;;;;;4977872;28;95872;-51
2021/08/11 09:03:50;;;;;;;13.13;8.23;;;17.80;67.90;;;;;;4970910;28;96122;-54
2021/08/11 09:06:19;;;;;;;17.58;8.25;;;17.80;68.10;;;;;;4980800;28;96098;-53
2021/08/11 09:09:09;;;;;;;9.20;6.65;;;17.80;68.20;;;;;;4978236;28;95899;-52
2021/08/11 09:11:43;;;;;;;12.88;7.53;;;17.80;68.40;;;;;;4982183;28;96541;-53
2021/08/11 09:14:23;;;;;;;16.75;7.70;;;17.70;68.50;;;;;;4983604;28;95879;-53
2021/08/11 09:16:59;;;;;;;13.15;7.43;;;17.70;68.70;;;;;;5007265;28;96090;-55
2021/08/11 09:19:44;;;;;;;13.15;7.65;;;17.60;68.90;;;;;;5006350;28;96540;-52
2021/08/11 09:22:17;;;;;;;12.98;7.68;;;17.60;69.20;;;;;;5023736;27;97080;-50
2021/08/11 09:24:48;;;;;;;9.65;7.00;;;17.60;69.20;;;;;;5023570;28;96015;-52
2021/08/11 09:27:27;;;;;;;10.23;7.32;;;17.60;69.20;;;;;;5024155;27;95742;-53
2021/08/11 09:30:02;;;;;;;13.38;7.43;;;17.60;69.20;;;;;;5005832;28;95859;-51
2021/08/11 09:32:47;;;;;;;10.02;6.57;;;17.50;69.20;;;;;;5019392;27;96585;-55
2021/08/11 09:35:23;;;;;;;10.90;7.32;;;17.50;69.20;;;;;;5008551;28;97059;-53
2021/08/11 09:37:57;;;;;;;8.77;5.95;;;17.50;69.30;;;;;;5023384;27;95956;-51
2021/08/11 09:40:30;;;;;;;9.13;6.38;;;17.50;69.30;;;;;;5024091;28;96032;-52
2021/08/11 09:43:07;;;;;;;9.13;6.50;;;17.40;69.50;;;;;;5022933;27;96104;-52
2021/08/11 09:45:56;;;;;;;11.02;5.20;;;17.50;69.30;;;;;;5020097;28;96356;-53
2021/08/11 09:48:42;;;;;;;8.45;5.68;;;17.60;69.00;;;;;;5024513;27;97157;-54
2021/08/11 09:51:12;;;;;;;11.88;6.18;;;17.70;68.80;;;;;;5022553;28;95970;-54
2021/08/11 09:53:43;;;;;;;8.80;5.28;;;17.70;68.70;;;;;;5022335;27;95944;-56
2021/08/11 09:56:13;;;;;;;;;;;17.80;68.80;;;;;;5019451;27;95780;-55
2021/08/11 09:59:00;;;;;;;7.38;4.35;;;17.80;68.80;;;;;;5006343;27;95753;-53
2021/08/11 10:01:30;;;;;;;7.88;4.53;;;17.80;68.80;;;;;;5018614;27;95951;-54
2021/08/11 10:04:03;;;;;;;9.57;5.45;;;17.80;68.80;;;;;;5022280;27;95898;-53
2021/08/11 10:06:36;;;;;;;8.52;5.00;;;17.90;68.80;;;;;;5023720;27;96377;-53
2021/08/11 10:09:19;;;;;;;9.68;4.13;;;17.90;68.80;;;;;;5024167;27;96387;-52
2021/08/11 10:11:53;;;;;;;5.10;3.80;;;17.90;69.00;;;;;;5023798;27;95404;-54
2021/08/11 10:14:26;;;;;;;5.68;3.92;;;17.90;69.60;;;;;;5021282;27;95854;-53
2021/08/11 10:17:02;;;;;;;6.38;3.97;;;17.90;69.40;;;;;;5020349;27;95418;-54
2021/08/11 10:19:34;;;;;;;6.03;3.42;;;17.90;69.00;;;;;;5025973;27;95617;-53
2021/08/11 10:22:14;;;;;;;6.05;3.25;;;17.90;68.90;;;;;;5025086;27;96719;-53
2021/08/11 10:24:45;;;;;;;4.70;3.03;;;18.00;68.90;;;;;;5008665;28;96104;-52
2021/08/11 10:27:18;;;;;;;4.20;2.80;;;18.00;69.00;;;;;;5026343;27;96547;-52
2021/08/11 10:29:54;;;;;;;7.07;3.13;;;18.10;69.40;;;;;;5026612;27;95790;-51
2021/08/11 10:32:26;;;;;;;4.05;3.03;;;18.10;69.40;;;;;;5022193;28;95819;-56
2021/08/11 10:34:58;;;;;;;5.40;3.25;;;18.10;69.60;;;;;;4999709;28;98073;-52
2021/08/11 10:37:30;;;;;;;4.63;2.65;;;18.10;69.50;;;;;;5024065;28;95935;-56
2021/08/11 10:40:04;;;;;;;4.30;2.67;;;18.10;69.40;;;;;;5048531;27;95614;-52
2021/08/11 10:42:34;;;;;;;4.03;2.80;;;18.10;69.50;;;;;;5032103;27;95877;-50
2021/08/11 10:45:05;;;;;;;6.22;2.78;;;18.00;69.70;;;;;;5022267;27;95875;-54
2021/08/11 10:47:37;;;;;;;4.15;2.30;;;18.00;69.90;;;;;;5009322;27;95823;-54
2021/08/11 10:50:09;;;;;;;4.45;2.45;;;17.90;69.90;;;;;;5028232;27;96223;-54
2021/08/11 10:52:40;;;;;;;3.13;2.38;;;17.90;70.00;;;;;;5009488;27;95975;-53
2021/08/11 10:55:12;;;;;;;7.15;2.40;;;17.90;70.10;;;;;;5015709;27;96467;-55
2021/08/11 10:57:42;;;;;;;3.95;2.20;;;17.90;69.90;;;;;;5020960;27;95919;-53
2021/08/11 11:00:28;;;;;;;4.50;2.80;;;17.90;70.20;;;;;;5023274;27;97172;-54
2021/08/11 11:02:59;;;;;;;3.38;2.58;;;17.90;70.20;;;;;;5025683;27;96623;-52
2021/08/11 11:05:33;;;;;;;4.90;2.33;;;17.90;70.40;;;;;;5024181;27;96904;-50
2021/08/11 11:08:11;;;;;;;3.92;2.28;;;18.00;70.10;;;;;;5025696;27;95864;-53
2021/08/11 11:10:44;;;;;;;2.83;1.80;;;18.00;69.90;;;;;;5025541;27;95858;-50
2021/08/11 11:13:26;;;;;;;4.45;2.25;;;18.00;69.60;;;;;;5024655;27;95358;-51
2021/08/11 11:16:01;;;;;;;3.80;2.25;;;18.00;69.50;;;;;;5020123;27;96680;-51
2021/08/11 11:18:33;;;;;;;4.97;2.03;;;18.00;69.30;;;;;;5026406;28;95574;-50
2021/08/11 11:21:04;;;;;;;2.40;1.88;;;18.00;69.20;;;;;;5025471;27;96615;-51
2021/08/11 11:23:42;;;;;;;2.72;1.92;;;18.00;69.10;;;;;;5025972;27;95747;-51
2021/08/11 11:26:15;;;;;;;2.30;1.90;;;18.00;69.00;;;;;;5025972;27;96531;-52
2021/08/11 11:28:55;;;;;;;3.13;2.00;;;18.00;68.90;;;;;;5025630;27;95921;-53
2021/08/11 11:31:37;;;;;;;2.97;1.98;;;18.00;68.90;;;;;;5019178;27;97440;-52
2021/08/11 11:34:24;;;;;;;2.85;2.03;;;18.00;68.80;;;;;;5015616;27;98423;-52
2021/08/11 11:36:59;;;;;;;2.20;1.88;;;18.00;68.70;;;;;;5015033;27;96536;-53
2021/08/11 11:39:54;;;;;;;1.65;1.40;;;17.90;68.60;;;;;;5023131;27;95934;-50
2021/08/11 11:42:29;;;;;;;2.80;1.50;;;17.90;68.50;;;;;;5026693;27;95956;-53
2021/08/11 11:45:01;;;;;;;4.00;2.00;;;17.90;68.50;;;;;;5025349;27;96357;-49
2021/08/11 11:47:56;;;;;;;2.25;1.58;;;17.90;68.40;;;;;;5022291;27;95934;-49
2021/08/11 11:50:28;;;;;;;2.47;1.98;;;17.90;68.50;;;;;;5016896;27;96017;-49
2021/08/11 11:53:04;;;;;;;2.47;1.90;;;17.90;68.40;;;;;;5024703;27;96042;-50
2021/08/11 11:55:41;;;;;;;3.60;1.80;;;17.80;68.30;;;;;;5021928;27;97090;-50
2021/08/11 11:58:21;;;;;;;2.28;1.63;;;17.80;68.20;;;;;;5022606;27;96726;-52
2021/08/11 12:01:05;;;;;;;1.65;1.52;;;17.80;68.30;;;;;;5018683;27;95672;-50
2021/08/11 12:03:37;;;;;;;2.95;2.05;;;17.80;68.30;;;;;;5024298;27;96707;-50
2021/08/11 12:06:11;;;;;;;1.70;1.42;;;17.80;68.30;;;;;;5026287;28;95887;-52
2021/08/11 12:08:56;;;;;;;2.75;1.73;;;17.70;69.10;;;;;;5029918;27;95803;-50
2021/08/11 12:11:28;;;;;;;2.75;1.77;;;17.80;69.10;;;;;;5044516;27;96277;-53
2021/08/11 12:14:01;;;;;;;1.60;1.40;;;17.80;69.20;;;;;;5029749;27;95740;-55
2021/08/11 12:16:40;;;;;;;3.33;1.58;;;17.80;69.30;;;;;;5026581;28;95841;-50
2021/08/11 12:19:17;;;;;;;3.20;1.58;;;17.80;69.40;;;;;;5010671;28;95969;-53
2021/08/11 12:21:49;;;;;;;2.42;1.55;;;17.90;69.40;;;;;;5011030;28;96404;-51
2021/08/11 12:24:19;;;;;;;;;;;17.90;69.50;;;;;;5029156;27;95775;-54
2021/08/11 12:26:50;;;;;;;1.92;1.48;;;18.00;69.60;;;;;;5029199;27;95824;-50
2021/08/11 12:29:23;;;;;;;3.13;1.85;;;18.00;69.60;;;;;;5027558;27;96505;-52
2021/08/11 12:31:54;;;;;;;2.58;1.60;;;18.00;70.10;;;;;;5024081;28;96224;-52
2021/08/11 12:34:25;;;;;;;2.28;2.08;;;18.10;69.40;;;;;;5018551;27;95760;-50
2021/08/11 12:36:58;;;;;;;3.00;2.05;;;18.10;69.40;;;;;;5020314;28;96035;-54
2021/08/11 12:39:28;;;;;;;3.42;2.05;;;18.10;69.50;;;;;;5026362;27;95926;-53
2021/08/11 12:42:04;;;;;;;2.53;1.80;;;18.10;69.50;;;;;;5027974;28;96387;-55
2021/08/11 12:44:35;;;;;;;1.85;1.60;;;18.10;69.60;;;;;;5026980;27;95776;-54
2021/08/11 12:47:06;;;;;;;2.10;1.55;;;18.20;69.40;;;;;;5022820;28;95636;-55
2021/08/11 12:49:39;;;;;;;2.67;1.93;;;18.10;69.50;;;;;;5031612;27;97364;-55
2021/08/11 12:52:19;;;;;;;2.53;1.73;;;18.20;69.60;;;;;;5030942;28;95891;-55
2021/08/11 12:55:08;;;;;;;2.50;2.10;;;18.10;69.10;;;;;;5040368;27;96139;-56
2021/08/11 12:57:46;;;;;;;1.70;1.55;;;18.00;69.30;;;;;;5024662;27;95966;-56
2021/08/11 13:00:18;;;;;;;3.95;2.45;;;18.00;69.10;;;;;;5020468;27;96292;-57
2021/08/11 13:03:00;;;;;;;3.35;1.77;;;18.00;68.90;;;;;;5023864;28;95982;-57
2021/08/11 13:05:30;;;;;;;1.88;1.63;;;18.00;68.70;;;;;;5025748;27;97467;-56
2021/08/11 13:08:04;;;;;;;3.33;1.83;;;18.00;68.50;;;;;;5025293;28;95875;-57
2021/08/11 13:10:36;;;;;;;2.20;1.92;;;18.00;68.60;;;;;;5024155;27;96989;-55
2021/08/11 13:13:24;;;;;;;2.50;2.00;;;17.90;68.50;;;;;;5023859;27;95791;-54
2021/08/11 13:16:08;;;;;;;3.10;2.33;;;17.90;68.70;;;;;;5021008;27;96105;-57
2021/08/11 13:18:41;;;;;;;2.05;1.83;;;17.90;68.70;;;;;;5023293;28;95915;-55
2021/08/11 13:21:11;;;;;;;3.40;1.75;;;17.90;68.50;;;;;;5024675;27;95941;-58
2021/08/11 13:23:42;;;;;;;2.85;1.98;;;17.80;68.60;;;;;;5022125;27;95642;-53
2021/08/11 13:26:12;;;;;;;3.10;2.35;;;17.80;69.00;;;;;;5000761;28;98363;-58